createdAt,value
2023-01-17T00:02:26.208Z,98419.40
2023-01-17T00:05:12.620Z,98419.00
2023-01-17T00:07:59.086Z,98421.60
2023-01-17T00:10:30.310Z,98410.00
2023-01-17T00:13:05.024Z,98399.60
2023-01-17T00:15:33.241Z,98400.00
2023-01-17T00:18:00.957Z,98393.60
2023-01-17T00:20:50.592Z,98391.20
2023-01-17T00:23:42.601Z,98391.60
2023-01-17T00:26:20.132Z,98384.40
2023-01-17T00:28:47.877Z,98382.40
2023-01-17T00:31:17.911Z,98385.20
2023-01-17T00:33:45.818Z,98381.20
2023-01-17T00:36:14.064Z,98378.40
2023-01-17T00:38:42.533Z,98371.40
2023-01-17T00:41:15.378Z,98367.60
2023-01-17T00:44:02.215Z,98368.80
2023-01-17T00:46:56.795Z,98365.60
2023-01-17T00:49:43.303Z,98364.20
2023-01-17T00:52:30.084Z,98352.80
2023-01-17T00:55:17.149Z,98351.80
2023-01-17T00:58:03.519Z,98346.60
2023-01-17T01:00:50.326Z,98343.00
2023-01-17T01:03:37.174Z,98337.60
2023-01-17T01:06:25.513Z,98343.20
2023-01-17T01:09:12.232Z,98334.20
2023-01-17T01:11:59.000Z,98333.20
2023-01-17T01:14:46.244Z,98327.60
2023-01-17T01:17:32.978Z,98324.80
2023-01-17T01:20:19.722Z,98321.20
2023-01-17T01:23:06.160Z,98317.80
2023-01-17T01:25:55.647Z,98314.40
2023-01-17T01:28:42.480Z,98314.00
2023-01-17T01:31:29.346Z,98310.00
2023-01-17T01:33:57.254Z,98308.80
2023-01-17T01:36:25.155Z,98303.20
2023-01-17T01:38:54.758Z,98304.40
2023-01-17T01:41:23.323Z,98306.80
2023-01-17T01:43:54.857Z,98298.60
2023-01-17T01:46:32.731Z,98299.40
2023-01-17T01:49:25.160Z,98292.40
2023-01-17T01:51:59.977Z,98288.20
2023-01-17T01:54:47.372Z,98288.20
2023-01-17T01:57:22.900Z,98279.60
2023-01-17T02:00:11.705Z,98278.40
2023-01-17T02:02:39.785Z,98272.40
2023-01-17T02:05:09.681Z,98271.80
2023-01-17T02:07:45.825Z,98262.80
2023-01-17T02:10:14.113Z,98259.00
2023-01-17T02:12:44.109Z,98261.60
2023-01-17T02:15:12.554Z,98259.80
2023-01-17T02:18:17.489Z,98253.40
2023-01-17T02:21:20.014Z,98255.20
2023-01-17T02:24:28.461Z,98248.00
2023-01-17T02:27:28.556Z,98242.00
2023-01-17T02:30:30.131Z,98235.20
2023-01-17T02:33:23.395Z,98228.40
2023-01-17T02:36:05.831Z,98227.20
2023-01-17T02:39:04.909Z,98224.20
2023-01-17T02:41:42.342Z,98216.60
2023-01-17T02:44:17.007Z,98216.20
2023-01-17T02:46:56.420Z,98212.60
2023-01-17T02:49:32.344Z,98209.00
2023-01-17T02:52:29.019Z,98205.80
2023-01-17T02:55:28.963Z,98205.80
2023-01-17T02:58:14.365Z,98200.60
2023-01-17T03:01:17.556Z,98194.20
2023-01-17T03:04:28.540Z,98193.80
2023-01-17T03:07:07.122Z,98195.60
2023-01-17T03:09:37.294Z,98185.20
2023-01-17T03:12:09.167Z,98188.20
2023-01-17T03:14:37.429Z,98177.00
2023-01-17T03:17:05.923Z,98177.60
2023-01-17T03:19:33.790Z,98173.00
2023-01-17T03:22:01.555Z,98171.60
2023-01-17T03:24:29.343Z,98165.80
2023-01-17T03:26:57.168Z,98163.00
2023-01-17T03:29:25.188Z,98159.60
2023-01-17T03:31:52.936Z,98161.20
2023-01-17T03:34:20.698Z,98157.80
2023-01-17T03:36:48.938Z,98161.00
2023-01-17T03:39:16.741Z,98166.00
2023-01-17T03:41:45.833Z,98163.80
2023-01-17T03:44:13.636Z,98163.80
2023-01-17T03:46:41.479Z,98169.20
2023-01-17T03:49:10.665Z,98165.80
2023-01-17T03:51:39.085Z,98163.40
2023-01-17T03:54:07.088Z,98160.80
2023-01-17T03:56:35.373Z,98158.20
2023-01-17T03:59:03.560Z,98161.40
2023-01-17T04:01:31.422Z,98154.20
2023-01-17T04:03:59.256Z,98154.00
2023-01-17T04:06:28.484Z,98150.20
2023-01-17T04:08:58.218Z,98149.20
2023-01-17T04:11:26.371Z,98144.40
2023-01-17T04:13:55.344Z,98148.20
2023-01-17T04:16:31.191Z,98143.80
2023-01-17T04:18:59.051Z,98139.60
2023-01-17T04:21:26.774Z,98140.80
2023-01-17T04:23:55.073Z,98140.00
2023-01-17T04:26:22.794Z,98142.20
2023-01-17T04:28:50.944Z,98133.60
2023-01-17T04:31:18.963Z,98137.40
2023-01-17T04:33:47.544Z,98131.60
2023-01-17T04:36:15.865Z,98133.80
2023-01-17T04:38:44.183Z,98133.40
2023-01-17T04:41:13.614Z,98135.20
2023-01-17T04:43:42.100Z,98132.20
2023-01-17T04:46:11.032Z,98132.80
2023-01-17T04:48:40.320Z,98130.80
2023-01-17T04:51:08.047Z,98128.40
2023-01-17T04:53:36.334Z,98131.40
2023-01-17T04:56:05.305Z,98130.20
2023-01-17T04:58:33.751Z,98132.00
2023-01-17T05:01:04.559Z,98127.40
2023-01-17T05:03:34.272Z,98123.40
2023-01-17T05:06:02.535Z,98126.20
2023-01-17T05:08:31.485Z,98128.20
2023-01-17T05:10:59.400Z,98123.20
2023-01-17T05:13:27.092Z,98123.60
2023-01-17T05:15:57.960Z,98120.80
2023-01-17T05:18:25.842Z,98127.60
2023-01-17T05:20:54.889Z,98127.80
2023-01-17T05:23:23.199Z,98128.80
2023-01-17T05:25:53.044Z,98134.40
2023-01-17T05:28:20.819Z,98130.40
2023-01-17T05:30:48.580Z,98126.00
2023-01-17T05:33:16.323Z,98134.40
2023-01-17T05:35:44.133Z,98134.20
2023-01-17T05:38:11.926Z,98127.00
2023-01-17T05:40:42.443Z,98134.20
2023-01-17T05:43:10.377Z,98132.80
2023-01-17T05:45:38.530Z,98139.40
2023-01-17T05:48:06.797Z,98133.40
2023-01-17T05:50:38.113Z,98133.20
2023-01-17T05:53:10.318Z,98131.00
2023-01-17T05:55:40.274Z,98131.40
2023-01-17T05:58:16.131Z,98133.00
2023-01-17T06:00:45.596Z,98137.80
2023-01-17T06:03:16.106Z,98128.60
2023-01-17T06:05:45.843Z,98132.40
2023-01-17T06:08:14.919Z,98130.40
2023-01-17T06:10:45.899Z,98127.60
2023-01-17T06:13:16.755Z,98128.00
2023-01-17T06:15:44.769Z,98128.40
2023-01-17T06:18:16.828Z,98132.80
2023-01-17T06:20:45.148Z,98131.80
2023-01-17T06:23:15.151Z,98132.80
2023-01-17T06:25:46.429Z,98136.00
2023-01-17T06:28:20.563Z,98137.80
2023-01-17T06:30:49.651Z,98141.20
2023-01-17T06:33:18.484Z,98135.60
2023-01-17T06:35:53.156Z,98145.60
2023-01-17T06:38:21.935Z,98151.40
2023-01-17T06:40:54.405Z,98151.20
2023-01-17T06:43:22.374Z,98153.60
2023-01-17T06:45:51.360Z,98154.80
2023-01-17T06:48:19.232Z,98157.80
2023-01-17T06:50:48.540Z,98165.80
2023-01-17T06:53:16.324Z,98162.00
2023-01-17T06:55:46.778Z,98161.80
2023-01-17T06:58:14.682Z,98162.40
2023-01-17T07:00:42.613Z,98159.00
2023-01-17T07:03:20.720Z,98160.40
2023-01-17T07:05:49.258Z,98164.80
2023-01-17T07:08:20.558Z,98161.40
2023-01-17T07:10:50.372Z,98163.00
2023-01-17T07:13:18.279Z,98165.60
2023-01-17T07:15:46.078Z,98167.40
2023-01-17T07:18:14.788Z,98168.40
2023-01-17T07:20:44.278Z,98169.60
2023-01-17T07:23:13.253Z,98171.20
2023-01-17T07:25:42.521Z,98170.80
2023-01-17T07:28:10.284Z,98169.00
2023-01-17T07:30:38.579Z,98173.60
2023-01-17T07:33:06.579Z,98173.00
2023-01-17T07:35:34.944Z,98179.40
2023-01-17T07:38:03.632Z,98179.80
2023-01-17T07:40:41.439Z,98185.00
2023-01-17T07:43:17.316Z,98179.60
2023-01-17T07:45:50.994Z,98180.40
2023-01-17T07:48:22.736Z,98178.00
2023-01-17T07:50:56.685Z,98181.60
2023-01-17T07:53:28.051Z,98183.40
2023-01-17T07:56:02.807Z,98186.60
2023-01-17T07:58:33.074Z,98188.60
2023-01-17T08:01:07.193Z,98197.60
2023-01-17T08:03:39.963Z,98193.40
2023-01-17T08:06:26.951Z,98202.40
2023-01-17T08:08:59.112Z,98196.80
2023-01-17T08:11:28.920Z,98202.40
2023-01-17T08:14:00.204Z,98203.00
2023-01-17T08:16:29.931Z,98200.40
2023-01-17T08:18:58.172Z,98201.20
2023-01-17T08:21:26.037Z,98208.20
2023-01-17T08:23:54.890Z,98205.20
2023-01-17T08:26:22.738Z,98204.00
2023-01-17T08:29:00.677Z,98208.20
2023-01-17T08:31:34.534Z,98203.80
2023-01-17T08:34:02.549Z,98205.40
2023-01-17T08:36:31.376Z,98211.60
2023-01-17T08:39:00.247Z,98211.80
2023-01-17T08:41:29.265Z,98206.20
2023-01-17T08:44:00.128Z,98206.00
2023-01-17T08:46:28.374Z,98204.60
2023-01-17T08:48:59.068Z,98208.80
2023-01-17T08:51:28.112Z,98207.40
2023-01-17T08:53:56.964Z,98211.60
2023-01-17T08:56:27.180Z,98214.80
2023-01-17T08:58:54.944Z,98217.00
2023-01-17T09:01:26.578Z,98216.20
2023-01-17T09:03:54.893Z,98214.20
2023-01-17T09:06:22.829Z,98222.40
2023-01-17T09:08:54.147Z,98229.60
2023-01-17T09:11:21.920Z,98234.20
2023-01-17T09:13:50.048Z,98233.20
2023-01-17T09:16:18.133Z,98235.60
2023-01-17T09:18:47.060Z,98233.40
2023-01-17T09:21:17.604Z,98243.00
2023-01-17T09:23:46.711Z,98239.60
2023-01-17T09:26:19.914Z,98242.20
2023-01-17T09:28:49.126Z,98245.00
2023-01-17T09:31:18.747Z,98245.20
2023-01-17T09:33:48.980Z,98243.40
2023-01-17T09:36:17.533Z,98247.80
2023-01-17T09:38:45.798Z,98245.40
2023-01-17T09:41:29.930Z,98240.00
2023-01-17T09:44:07.420Z,98241.80
2023-01-17T09:46:45.024Z,98241.80
2023-01-17T09:49:43.157Z,98247.80
2023-01-17T09:52:19.646Z,98251.20
2023-01-17T09:54:50.035Z,98252.60
2023-01-17T09:57:46.896Z,98253.20
2023-01-17T10:01:22.892Z,98255.60
2023-01-17T10:04:22.790Z,98256.20
2023-01-17T10:07:34.210Z,98255.80
2023-01-17T10:10:42.806Z,98252.20
2023-01-17T10:13:47.562Z,98253.00
2023-01-17T10:16:42.328Z,98253.00
2023-01-17T10:19:47.819Z,98257.20
2023-01-17T10:22:31.581Z,98254.20
2023-01-17T10:25:16.419Z,98253.40
2023-01-17T10:28:00.041Z,98249.60
2023-01-17T10:30:43.716Z,98244.80
2023-01-17T10:33:24.713Z,98245.80
2023-01-17T10:36:00.073Z,98247.00
2023-01-17T10:38:37.083Z,98245.80
2023-01-17T10:41:15.716Z,98248.40
2023-01-17T10:44:17.360Z,98250.60
2023-01-17T10:46:55.496Z,98245.80
2023-01-17T10:49:28.098Z,98242.80
2023-01-17T10:52:39.070Z,98240.00
2023-01-17T10:55:25.072Z,98240.40
2023-01-17T10:57:54.425Z,98242.20
2023-01-17T11:00:35.476Z,98244.80
2023-01-17T11:03:04.269Z,98246.60
2023-01-17T11:05:36.709Z,98248.20
2023-01-17T11:08:14.442Z,98246.00
2023-01-17T11:10:57.265Z,98242.20
2023-01-17T11:13:30.799Z,98240.80
2023-01-17T11:16:05.971Z,98236.80
2023-01-17T11:18:38.341Z,98240.00
2023-01-17T11:21:12.203Z,98238.40
2023-01-17T11:23:46.767Z,98233.40
2023-01-17T11:26:29.249Z,98232.60
2023-01-17T11:29:31.315Z,98232.80
2023-01-17T11:32:29.969Z,98237.00
2023-01-17T11:35:20.301Z,98229.60
2023-01-17T11:38:04.517Z,98229.60
2023-01-17T11:40:40.805Z,98232.20
2023-01-17T11:43:12.104Z,98226.80
2023-01-17T11:45:41.185Z,98227.00
2023-01-17T11:48:09.254Z,98224.60
2023-01-17T11:51:03.537Z,98223.20
2023-01-17T11:53:39.353Z,98221.20
2023-01-17T11:56:34.227Z,98224.40
2023-01-17T11:59:37.686Z,98221.00
2023-01-17T12:02:36.187Z,98217.60
2023-01-17T12:05:32.567Z,98217.60
2023-01-17T12:08:14.774Z,98213.20
2023-01-17T12:11:38.451Z,98206.20
2023-01-17T12:14:40.934Z,98205.60
2023-01-17T12:17:33.542Z,98203.60
2023-01-17T12:20:07.099Z,98205.00
2023-01-17T12:22:56.611Z,98199.60
2023-01-17T12:25:54.657Z,98196.20
2023-01-17T12:29:06.520Z,98194.60
2023-01-17T12:32:08.654Z,98188.80
2023-01-17T12:35:32.356Z,98183.80
2023-01-17T12:38:14.060Z,98179.80
2023-01-17T12:40:55.965Z,98187.00
2023-01-17T12:43:37.429Z,98183.40
2023-01-17T12:46:30.753Z,98176.40
2023-01-17T12:49:14.185Z,98180.60
2023-01-17T12:51:47.457Z,98180.60
2023-01-17T12:54:31.674Z,98181.60
2023-01-17T12:57:14.064Z,98177.00
2023-01-17T13:00:02.715Z,98174.80
2023-01-17T13:03:11.978Z,98165.40
2023-01-17T13:05:46.471Z,98165.00
2023-01-17T13:08:40.953Z,98167.00
2023-01-17T13:11:21.233Z,98164.40
2023-01-17T13:13:52.302Z,98167.40
2023-01-17T13:16:58.719Z,98163.40
2023-01-17T13:20:39.592Z,98163.20
2023-01-17T13:23:29.611Z,98161.00
2023-01-17T13:26:00.639Z,98163.20
2023-01-17T13:28:56.465Z,98159.20
2023-01-17T13:31:39.573Z,98164.60
2023-01-17T13:34:39.012Z,98160.60
2023-01-17T13:38:10.681Z,98161.80
2023-01-17T13:41:11.148Z,98164.20
2023-01-17T13:44:09.540Z,98162.00
2023-01-17T13:47:01.180Z,98162.40
2023-01-17T13:49:40.741Z,98159.00
2023-01-17T13:52:20.477Z,98158.20
2023-01-17T13:54:54.414Z,98157.00
2023-01-17T13:57:30.248Z,98155.60
2023-01-17T14:00:35.879Z,98152.60
2023-01-17T14:03:05.100Z,98146.60
2023-01-17T14:05:38.975Z,98155.40
2023-01-17T14:08:17.911Z,98152.40
2023-01-17T14:10:54.802Z,98156.80
2023-01-17T14:13:36.589Z,98154.80
2023-01-17T14:16:24.703Z,98154.20
2023-01-17T14:18:55.155Z,98158.80
2023-01-17T14:21:27.651Z,98160.40
2023-01-17T14:24:15.472Z,98158.80
2023-01-17T14:27:01.727Z,98156.20
2023-01-17T14:30:00.729Z,98155.60
2023-01-17T14:32:35.466Z,98155.00
2023-01-17T14:35:05.854Z,98159.00
2023-01-17T14:37:42.166Z,98159.00
2023-01-17T14:40:30.711Z,98150.40
2023-01-17T14:43:12.096Z,98148.80
2023-01-17T14:45:43.027Z,98147.60
2023-01-17T14:48:23.152Z,98148.60
2023-01-17T14:50:55.083Z,98147.40
2023-01-17T14:53:29.760Z,98148.80
2023-01-17T14:56:14.918Z,98143.20
2023-01-17T14:58:43.008Z,98147.00
2023-01-17T15:01:13.430Z,98146.20
2023-01-17T15:03:49.608Z,98145.60
2023-01-17T15:06:24.156Z,98143.60
2023-01-17T15:08:54.967Z,98144.00
2023-01-17T15:11:30.179Z,98146.40
2023-01-17T15:14:05.796Z,98143.60
2023-01-17T15:16:38.385Z,98142.80
2023-01-17T15:19:15.438Z,98145.40
2023-01-17T15:21:46.860Z,98144.20
2023-01-17T15:24:26.355Z,98141.00
2023-01-17T15:26:55.307Z,98143.00
2023-01-17T15:29:30.965Z,98140.00
2023-01-17T15:32:02.327Z,98140.80
2023-01-17T15:34:43.356Z,98142.40
2023-01-17T15:37:41.552Z,98138.00
2023-01-17T15:40:24.399Z,98136.00
2023-01-17T15:43:02.400Z,98135.40
2023-01-17T15:45:33.220Z,98129.60
2023-01-17T15:48:40.607Z,98124.60
2023-01-17T15:51:12.594Z,98122.20
2023-01-17T15:53:43.268Z,98121.60
2023-01-17T15:56:32.680Z,98113.00
2023-01-17T15:59:45.815Z,98108.80
2023-01-17T16:02:43.371Z,98114.20
2023-01-17T16:05:24.260Z,98110.40
2023-01-17T16:07:56.291Z,98115.40
2023-01-17T16:10:31.771Z,98115.00
2023-01-17T16:12:59.900Z,98114.40
2023-01-17T16:15:29.470Z,98114.80
2023-01-17T16:18:24.420Z,98118.00
2023-01-17T16:21:15.616Z,98118.20
2023-01-17T16:23:43.508Z,98111.80
2023-01-17T16:26:11.526Z,98119.80
2023-01-17T16:28:39.726Z,98117.20
2023-01-17T16:31:08.767Z,98118.20
2023-01-17T16:33:39.456Z,98118.20
2023-01-17T16:36:15.710Z,98119.60
2023-01-17T16:38:51.219Z,98116.20
2023-01-17T16:41:20.915Z,98114.20
2023-01-17T16:43:59.307Z,98117.00
2023-01-17T16:46:29.682Z,98112.60
2023-01-17T16:49:00.480Z,98111.20
2023-01-17T16:51:28.636Z,98114.00
2023-01-17T16:53:58.878Z,98110.60
2023-01-17T16:56:27.167Z,98112.40
2023-01-17T16:58:55.455Z,98111.00
2023-01-17T17:01:25.739Z,98111.80
2023-01-17T17:03:54.691Z,98110.00
2023-01-17T17:06:22.719Z,98111.60
2023-01-17T17:08:51.979Z,98111.00
2023-01-17T17:11:24.408Z,98111.80
2023-01-17T17:13:53.030Z,98106.00
2023-01-17T17:16:26.575Z,98110.00
2023-01-17T17:19:02.620Z,98101.00
2023-01-17T17:21:35.499Z,98100.60
2023-01-17T17:24:05.677Z,98096.00
2023-01-17T17:26:38.044Z,98097.20
2023-01-17T17:29:10.531Z,98096.40
2023-01-17T17:31:41.142Z,98091.60
2023-01-17T17:34:12.561Z,98095.20
2023-01-17T17:36:41.914Z,98091.40
2023-01-17T17:39:17.379Z,98091.60
2023-01-17T17:41:45.900Z,98094.80
2023-01-17T17:44:13.874Z,98092.00
2023-01-17T17:46:43.272Z,98089.60
2023-01-17T17:49:12.802Z,98085.20
2023-01-17T17:51:41.010Z,98081.80
2023-01-17T17:54:12.145Z,98083.20
2023-01-17T17:56:42.354Z,98084.60
2023-01-17T17:59:17.034Z,98084.40
2023-01-17T18:01:48.552Z,98077.60
2023-01-17T18:04:18.704Z,98076.40
2023-01-17T18:06:46.796Z,98080.20
2023-01-17T18:09:15.846Z,98072.40
2023-01-17T18:11:44.918Z,98073.20
2023-01-17T18:14:15.150Z,98076.60
2023-01-17T18:16:45.023Z,98080.40
2023-01-17T18:19:17.966Z,98080.80
2023-01-17T18:21:46.634Z,98081.00
2023-01-17T18:24:22.634Z,98080.40
2023-01-17T18:26:59.566Z,98082.40
2023-01-17T18:29:29.152Z,98084.60
2023-01-17T18:31:59.009Z,98084.00
2023-01-17T18:34:31.527Z,98085.60
2023-01-17T18:36:59.387Z,98079.60
2023-01-17T18:39:30.047Z,98084.20
2023-01-17T18:42:00.175Z,98079.40
2023-01-17T18:44:30.698Z,98079.60
2023-01-17T18:47:04.252Z,98078.60
2023-01-17T18:49:35.070Z,98079.80
2023-01-17T18:52:05.024Z,98079.80
2023-01-17T18:54:44.692Z,98080.80
2023-01-17T18:57:14.457Z,98083.80
2023-01-17T18:59:44.351Z,98081.80
2023-01-17T19:02:12.459Z,98081.20
2023-01-17T19:04:40.761Z,98083.60
2023-01-17T19:07:10.107Z,98077.60
2023-01-17T19:09:41.040Z,98078.80
2023-01-17T19:12:11.465Z,98082.80
2023-01-17T19:14:39.710Z,98075.00
2023-01-17T19:17:08.169Z,98078.00
2023-01-17T19:19:36.429Z,98079.80
2023-01-17T19:22:08.707Z,98075.20
2023-01-17T19:24:38.384Z,98076.80
2023-01-17T19:27:08.016Z,98072.00
2023-01-17T19:29:35.779Z,98070.80
2023-01-17T19:32:04.784Z,98075.20
2023-01-17T19:34:32.794Z,98075.20
2023-01-17T19:37:01.026Z,98076.20
2023-01-17T19:39:33.595Z,98072.80
2023-01-17T19:42:02.595Z,98078.20
2023-01-17T19:44:30.270Z,98071.80
2023-01-17T19:46:58.034Z,98074.80
2023-01-17T19:49:27.020Z,98074.00
2023-01-17T19:51:57.361Z,98077.80
2023-01-17T19:54:26.125Z,98072.40
2023-01-17T19:56:56.853Z,98072.00
2023-01-17T19:59:26.599Z,98072.20
2023-01-17T20:01:55.663Z,98076.80
2023-01-17T20:04:24.526Z,98074.40
2023-01-17T20:06:54.033Z,98071.40
2023-01-17T20:09:25.142Z,98070.00
2023-01-17T20:11:53.506Z,98065.80
2023-01-17T20:14:21.896Z,98067.40
2023-01-17T20:16:51.481Z,98069.00
2023-01-17T20:19:21.179Z,98067.60
2023-01-17T20:21:49.704Z,98069.20
2023-01-17T20:24:17.793Z,98068.20
2023-01-17T20:26:48.414Z,98070.00
2023-01-17T20:29:18.947Z,98066.20
2023-01-17T20:31:54.712Z,98066.60
2023-01-17T20:34:26.355Z,98068.20
2023-01-17T20:36:57.684Z,98068.00
2023-01-17T20:39:25.487Z,98073.00
2023-01-17T20:41:56.155Z,98073.20
2023-01-17T20:44:25.464Z,98076.20
2023-01-17T20:46:53.355Z,98073.80
2023-01-17T20:49:22.087Z,98073.20
2023-01-17T20:51:49.967Z,98076.80
2023-01-17T20:54:20.592Z,98079.00
2023-01-17T20:56:49.285Z,98077.60
2023-01-17T20:59:21.612Z,98081.60
2023-01-17T21:01:51.041Z,98085.20
2023-01-17T21:04:25.657Z,98093.40
2023-01-17T21:06:56.447Z,98091.80
2023-01-17T21:09:24.696Z,98097.40
2023-01-17T21:11:54.408Z,98092.80
2023-01-17T21:14:22.620Z,98094.80
2023-01-17T21:16:52.868Z,98098.00
2023-01-17T21:19:25.136Z,98096.80
2023-01-17T21:21:53.759Z,98094.40
2023-01-17T21:24:23.711Z,98094.00
2023-01-17T21:26:53.940Z,98089.20
2023-01-17T21:29:29.298Z,98089.00
2023-01-17T21:31:57.360Z,98087.40
2023-01-17T21:34:25.708Z,98091.60
2023-01-17T21:36:54.351Z,98087.60
2023-01-17T21:39:23.436Z,98092.40
2023-01-17T21:41:51.267Z,98096.00
2023-01-17T21:44:23.641Z,98094.40
2023-01-17T21:46:55.145Z,98089.00
2023-01-17T21:49:23.814Z,98091.60
2023-01-17T21:51:54.605Z,98091.40
2023-01-17T21:54:44.609Z,98088.00
2023-01-17T21:57:34.972Z,98090.60
2023-01-17T22:00:07.259Z,98089.40
2023-01-17T22:02:34.997Z,98091.00
2023-01-17T22:05:03.097Z,98085.80
2023-01-17T22:07:31.007Z,98087.20
2023-01-17T22:09:58.814Z,98090.20
2023-01-17T22:12:26.538Z,98091.20
2023-01-17T22:14:54.554Z,98090.00
2023-01-17T22:17:22.546Z,98083.80
2023-01-17T22:19:51.156Z,98084.40
2023-01-17T22:22:19.174Z,98088.60
2023-01-17T22:24:48.751Z,98086.00
2023-01-17T22:27:21.323Z,98085.20
2023-01-17T22:29:49.038Z,98087.60
2023-01-17T22:32:17.205Z,98084.80
2023-01-17T22:34:45.404Z,98087.20
2023-01-17T22:37:13.408Z,98087.40
2023-01-17T22:39:41.157Z,98089.20
2023-01-17T22:42:08.907Z,98086.40
2023-01-17T22:44:36.609Z,98090.60
2023-01-17T22:47:06.831Z,98092.20
2023-01-17T22:49:34.603Z,98089.60
2023-01-17T22:52:02.441Z,98089.20
2023-01-17T22:54:30.264Z,98092.60
2023-01-17T22:57:00.349Z,98093.00
2023-01-17T22:59:28.210Z,98090.40
2023-01-17T23:01:55.891Z,98090.40
2023-01-17T23:04:24.735Z,98088.00
2023-01-17T23:06:56.727Z,98088.40
2023-01-17T23:09:25.796Z,98090.20
2023-01-17T23:11:55.267Z,98087.80
2023-01-17T23:14:56.026Z,98088.00
2023-01-17T23:17:45.382Z,98084.60
2023-01-17T23:20:13.198Z,98086.40
2023-01-17T23:22:41.045Z,98088.20
2023-01-17T23:25:13.590Z,98087.20
2023-01-17T23:28:04.159Z,98086.00
2023-01-17T23:30:41.485Z,98083.40
2023-01-17T23:33:17.907Z,98078.80
2023-01-17T23:35:47.574Z,98077.80
2023-01-17T23:38:29.864Z,98078.00
2023-01-17T23:41:27.755Z,98075.80
2023-01-17T23:43:59.389Z,98075.80
2023-01-17T23:46:30.197Z,98081.60
2023-01-17T23:48:58.841Z,98084.20
2023-01-17T23:51:27.159Z,98089.60
2023-01-17T23:54:05.537Z,98090.20
2023-01-17T23:56:33.380Z,98092.80
2023-01-17T23:59:02.797Z,98092.40
